Time;durP1;ratioP1;P1;durP2;ratioP2;P2;SDS_P1;SDS_P2;PMS_P1;PMS_P2;Temp;Humidity;BMP_temperature;BMP_pressure;BME280_temperature;BME280_humidity;BME280_pressure;Samples;Min_cycle;Max_cycle;Signal;HPM_P1;HPM_P2
2021/06/27 00:02:00;;;;;;;3.25;2.00;;;20.90;91.50;;;;;;5033185;28;20049;-68
2021/06/27 00:05:06;;;;;;;6.40;2.47;;;20.80;91.50;;;;;;5033466;28;20052;-69
2021/06/27 00:08:12;;;;;;;9.80;2.10;;;20.70;91.40;;;;;;5033415;28;20052;-69
2021/06/27 00:11:17;;;;;;;6.00;2.20;;;20.70;91.20;;;;;;5032850;28;20048;-68
2021/06/27 00:14:21;;;;;;;5.03;2.40;;;20.70;91.50;;;;;;5033378;28;20044;-68
2021/06/27 00:17:26;;;;;;;9.90;2.10;;;20.60;91.60;;;;;;5030996;28;20095;-68
2021/06/27 00:20:34;;;;;;;10.20;2.33;;;20.60;91.70;;;;;;5012854;28;20052;-68
2021/06/27 00:23:43;;;;;;;6.28;2.30;;;20.60;91.80;;;;;;5013474;28;20049;-69
2021/06/27 00:26:48;;;;;;;5.93;2.50;;;20.60;92.00;;;;;;5013303;28;20048;-66
2021/06/27 00:29:52;;;;;;;5.90;2.40;;;20.60;91.70;;;;;;5013397;28;20048;-68
2021/06/27 00:32:58;;;;;;;5.03;2.30;;;20.60;91.90;;;;;;5013331;28;20396;-69
2021/06/27 00:36:03;;;;;;;5.75;2.50;;;20.60;91.80;;;;;;5013520;28;20041;-69
2021/06/27 00:39:07;;;;;;;8.35;2.15;;;20.60;92.20;;;;;;5012849;28;20519;-69
2021/06/27 00:42:12;;;;;;;3.53;2.30;;;20.50;92.20;;;;;;5010818;28;20053;-69
2021/06/27 00:45:18;;;;;;;4.25;2.80;;;20.50;92.10;;;;;;5018403;28;20088;-70
2021/06/27 00:48:23;;;;;;;6.35;3.00;;;20.50;92.40;;;;;;5029781;28;20049;-69
2021/06/27 00:51:28;;;;;;;6.68;2.33;;;20.40;92.50;;;;;;5012498;28;20049;-69
2021/06/27 00:54:32;;;;;;;5.82;2.60;;;20.00;94.40;;;;;;5013060;28;20053;-68
2021/06/27 00:57:41;;;;;;;4.60;2.55;;;19.70;95.60;;;;;;5021573;28;20511;-69
2021/06/27 01:00:45;;;;;;;6.97;2.80;;;19.50;95.50;;;;;;5032137;28;20052;-68
2021/06/27 01:03:49;;;;;;;8.43;2.17;;;19.30;95.90;;;;;;5032795;28;20045;-69
2021/06/27 01:06:53;;;;;;;3.90;1.90;;;19.20;95.80;;;;;;5032408;28;20044;-69
2021/06/27 01:09:57;;;;;;;5.00;2.20;;;19.20;94.40;;;;;;5032700;28;20538;-69
2021/06/27 01:13:02;;;;;;;5.60;1.80;;;19.20;94.80;;;;;;5032551;28;20041;-68
2021/06/27 01:16:06;;;;;;;4.10;2.25;;;19.10;94.40;;;;;;5012936;28;20049;-69
2021/06/27 01:19:11;;;;;;;9.57;2.38;;;19.00;94.80;;;;;;5012782;28;20053;-68
2021/06/27 01:22:15;;;;;;;4.85;2.47;;;19.00;95.40;;;;;;5012516;28;20057;-68
2021/06/27 01:25:25;;;;;;;6.10;2.60;;;18.90;95.90;;;;;;5012712;28;20044;-69
2021/06/27 01:28:29;;;;;;;6.57;2.78;;;18.90;95.90;;;;;;5013872;28;20491;-68
2021/06/27 01:31:35;;;;;;;8.45;2.30;;;19.00;97.10;;;;;;5009229;28;20396;-68
2021/06/27 01:34:43;;;;;;;6.10;2.70;;;19.00;96.70;;;;;;5032223;28;20048;-68
2021/06/27 01:37:51;;;;;;;7.00;2.72;;;19.00;97.30;;;;;;5017384;28;20057;-68
2021/06/27 01:40:55;;;;;;;6.60;2.45;;;19.00;97.70;;;;;;5012044;28;20060;-68
2021/06/27 01:44:00;;;;;;;6.32;2.60;;;19.00;97.90;;;;;;5012500;28;20056;-68
2021/06/27 01:47:04;;;;;;;8.32;3.17;;;18.90;98.40;;;;;;5012293;28;20060;-68
2021/06/27 01:50:10;;;;;;;4.85;2.50;;;18.80;98.60;;;;;;5011499;28;20045;-68
2021/06/27 01:53:19;;;;;;;4.60;3.00;;;18.60;99.30;;;;;;5012353;28;20041;-68
2021/06/27 01:56:23;;;;;;;8.60;2.72;;;18.50;99.60;;;;;;5012074;28;20045;-68
2021/06/27 01:59:27;;;;;;;5.95;2.63;;;18.40;99.90;;;;;;5011808;28;20045;-68
2021/06/27 02:02:31;;;;;;;4.70;3.42;;;18.40;99.90;;;;;;5019948;28;20056;-68
2021/06/27 02:05:35;;;;;;;11.10;3.45;;;18.30;99.90;;;;;;5031708;28;20045;-68
2021/06/27 02:08:41;;;;;;;5.25;2.65;;;18.20;99.90;;;;;;5031746;28;20052;-69
2021/06/27 02:11:46;;;;;;;6.70;3.22;;;18.10;99.90;;;;;;5040493;28;20066;-68
2021/06/27 02:14:50;;;;;;;5.70;3.35;;;18.00;99.90;;;;;;5031230;28;20056;-68
2021/06/27 02:18:20;;;;;;;6.25;3.25;;;17.90;99.90;;;;;;5031629;28;20039;-69
2021/06/27 02:21:27;;;;;;;3.65;2.72;;;17.80;99.90;;;;;;5031432;28;20782;-69
2021/06/27 02:24:32;;;;;;;9.45;3.15;;;17.80;99.90;;;;;;5031536;28;20048;-68
2021/06/27 02:27:37;;;;;;;8.10;3.08;;;17.80;99.90;;;;;;5031252;28;20056;-68
2021/06/27 02:30:41;;;;;;;6.25;3.50;;;17.80;99.90;;;;;;5030119;28;20040;-69
2021/06/27 02:33:47;;;;;;;9.13;3.03;;;17.80;99.90;;;;;;5030617;28;20675;-68
2021/06/27 02:36:51;;;;;;;7.97;3.53;;;17.80;99.90;;;;;;5021096;28;20037;-69
2021/06/27 02:39:56;;;;;;;8.13;3.20;;;17.90;99.90;;;;;;5011311;28;20045;-68
2021/06/27 02:43:00;;;;;;;8.27;3.20;;;18.00;99.90;;;;;;5011183;28;20654;-68
2021/06/27 02:46:05;;;;;;;7.80;2.95;;;18.00;99.90;;;;;;5011437;28;20388;-68
2021/06/27 02:49:09;;;;;;;5.35;2.75;;;18.00;99.90;;;;;;5010949;28;20049;-68
2021/06/27 02:52:13;;;;;;;5.28;2.83;;;18.00;99.90;;;;;;5010440;28;20037;-68
2021/06/27 02:55:18;;;;;;;5.10;2.72;;;18.00;99.90;;;;;;5010752;28;20056;-69
2021/06/27 02:58:22;;;;;;;4.15;2.33;;;17.90;99.90;;;;;;5021531;28;20040;-68
2021/06/27 03:01:26;;;;;;;4.40;2.75;;;17.90;99.90;;;;;;5009904;28;20052;-69
2021/06/27 03:04:30;;;;;;;5.88;2.55;;;17.90;99.90;;;;;;5010837;28;20041;-68
2021/06/27 03:07:34;;;;;;;3.58;2.20;;;18.00;99.90;;;;;;5010815;28;20037;-68
2021/06/27 03:10:39;;;;;;;4.47;2.35;;;18.00;99.90;;;;;;5010160;28;20380;-68
2021/06/27 03:13:43;;;;;;;5.00;3.08;;;18.00;99.90;;;;;;5011294;28;20053;-68
2021/06/27 03:16:47;;;;;;;10.57;3.35;;;18.00;99.90;;;;;;5011165;28;20044;-68
2021/06/27 03:19:51;;;;;;;4.30;2.47;;;17.90;99.90;;;;;;5010931;28;20048;-69
2021/06/27 03:22:55;;;;;;;6.97;2.90;;;17.80;99.90;;;;;;5010776;28;20053;-68
2021/06/27 03:25:59;;;;;;;5.05;3.13;;;17.80;99.90;;;;;;5010843;28;20049;-68
2021/06/27 03:29:03;;;;;;;12.45;3.33;;;17.70;99.90;;;;;;5010902;28;20037;-68
2021/06/27 03:32:08;;;;;;;7.57;3.33;;;17.60;99.90;;;;;;5010489;28;20049;-68
2021/06/27 03:35:13;;;;;;;7.78;3.67;;;17.60;99.90;;;;;;5010683;28;20053;-68
2021/06/27 03:38:26;;;;;;;5.30;3.20;;;17.50;99.90;;;;;;4990578;28;20053;-68
2021/06/27 03:41:34;;;;;;;;;;;17.40;99.90;;;;;;4989657;28;20037;-68
2021/06/27 03:44:39;;;;;;;11.55;3.10;;;17.40;99.90;;;;;;4992588;28;20261;-68
2021/06/27 03:47:44;;;;;;;11.80;3.72;;;17.40;99.90;;;;;;4994399;28;20054;-68
2021/06/27 03:50:49;;;;;;;9.63;3.55;;;17.40;99.90;;;;;;4994061;28;20050;-68
2021/06/27 03:53:53;;;;;;;7.38;3.97;;;17.30;99.90;;;;;;4994764;28;20045;-68
2021/06/27 03:56:58;;;;;;;9.68;3.92;;;17.40;99.90;;;;;;4994459;28;20042;-68
2021/06/27 04:00:04;;;;;;;6.35;3.80;;;17.50;99.90;;;;;;4994126;28;20057;-68
2021/06/27 04:03:29;;;;;;;10.95;3.60;;;17.50;99.90;;;;;;5011413;28;20137;-68
2021/06/27 04:06:33;;;;;;;12.13;4.57;;;17.50;99.90;;;;;;5011861;28;20048;-68
2021/06/27 04:09:37;;;;;;;8.00;3.95;;;17.60;99.90;;;;;;5000274;28;20057;-68
2021/06/27 04:12:41;;;;;;;8.52;3.50;;;17.60;99.90;;;;;;5011677;28;20060;-68
2021/06/27 04:15:47;;;;;;;5.97;3.30;;;17.70;99.90;;;;;;5011412;28;20090;-69
2021/06/27 04:18:51;;;;;;;6.97;3.72;;;17.70;99.90;;;;;;5011279;28;20045;-68
2021/06/27 04:21:55;;;;;;;13.10;3.75;;;17.70;99.90;;;;;;5010576;28;20041;-69
2021/06/27 04:25:01;;;;;;;16.08;4.15;;;17.80;99.90;;;;;;5011252;28;20072;-68
2021/06/27 04:28:07;;;;;;;10.68;3.80;;;17.80;99.90;;;;;;5011412;28;20060;-69
2021/06/27 04:31:11;;;;;;;8.90;3.92;;;18.00;99.90;;;;;;5010543;28;20554;-68
2021/06/27 04:34:15;;;;;;;5.97;3.47;;;19.10;99.90;;;;;;5011298;28;20130;-68
2021/06/27 04:37:19;;;;;;;8.25;3.38;;;20.80;99.90;;;;;;5024286;28;20056;-68
2021/06/27 04:40:24;;;;;;;8.15;3.42;;;22.70;99.90;;;;;;5021662;28;20052;-68
2021/06/27 04:43:28;;;;;;;12.55;3.50;;;24.30;98.70;;;;;;5013397;28;20418;-68
2021/06/27 04:46:32;;;;;;;94.20;44.95;;;25.40;96.70;;;;;;5013776;28;20049;-69
2021/06/27 04:49:41;;;;;;;78.32;32.83;;;26.50;94.70;;;;;;5013597;28;20416;-68
2021/06/27 04:52:51;;;;;;;9.32;4.45;;;27.50;93.00;;;;;;5012975;28;20045;-68
2021/06/27 04:55:58;;;;;;;7.82;3.70;;;27.80;91.80;;;;;;5012967;28;20390;-69
2021/06/27 04:59:02;;;;;;;10.57;4.45;;;28.10;91.20;;;;;;5013255;28;20057;-68
2021/06/27 05:02:06;;;;;;;10.05;4.25;;;28.50;90.30;;;;;;5012427;28;20053;-69
2021/06/27 05:05:12;;;;;;;15.50;7.72;;;28.80;89.50;;;;;;5013294;28;20049;-68
2021/06/27 05:08:17;;;;;;;43.90;24.80;;;28.20;89.60;;;;;;5012879;28;20044;-68
2021/06/27 05:11:21;;;;;;;45.53;25.40;;;26.40;90.90;;;;;;5012092;28;20056;-68
2021/06/27 05:14:25;;;;;;;39.22;19.35;;;26.50;91.50;;;;;;5012888;28;20048;-69
2021/06/27 05:17:29;;;;;;;23.85;14.82;;;27.10;90.90;;;;;;5012410;28;20053;-68
2021/06/27 05:20:35;;;;;;;24.38;13.52;;;27.80;90.40;;;;;;5011877;28;20515;-69
2021/06/27 05:23:39;;;;;;;23.60;12.02;;;28.60;89.10;;;;;;5012233;28;20057;-67
2021/06/27 05:26:44;;;;;;;31.92;15.98;;;28.30;89.40;;;;;;5012358;28;20041;-68
2021/06/27 05:29:48;;;;;;;20.63;9.60;;;27.20;90.00;;;;;;5012438;28;20057;-68
2021/06/27 05:32:52;;;;;;;8.82;5.03;;;26.00;91.10;;;;;;5012227;28;20515;-69
2021/06/27 05:35:57;;;;;;;6.47;3.38;;;27.90;90.30;;;;;;5014597;28;20049;-68
2021/06/27 05:39:05;;;;;;;9.85;4.32;;;28.70;89.10;;;;;;5031808;28;20060;-68
2021/06/27 05:42:09;;;;;;;16.80;3.63;;;28.90;87.50;;;;;;5030892;28;20045;-68
2021/06/27 05:45:14;;;;;;;6.68;4.00;;;29.60;85.90;;;;;;5031753;28;20048;-68
2021/06/27 05:48:18;;;;;;;7.28;3.42;;;30.40;83.50;;;;;;5031498;28;20033;-69
2021/06/27 05:51:22;;;;;;;7.95;3.13;;;29.50;84.20;;;;;;5030934;28;20487;-68
2021/06/27 05:54:26;;;;;;;12.13;3.83;;;30.50;83.00;;;;;;5031824;28;20060;-68
2021/06/27 05:57:30;;;;;;;11.05;3.53;;;31.50;80.70;;;;;;5031477;28;20483;-69
2021/06/27 06:00:34;;;;;;;6.97;3.17;;;32.00;78.60;;;;;;5030703;28;20052;-68
2021/06/27 06:03:40;;;;;;;12.00;3.80;;;32.00;79.20;;;;;;5017868;28;20049;-68
2021/06/27 06:06:45;;;;;;;10.73;4.18;;;30.20;80.50;;;;;;4991454;28;20057;-68
2021/06/27 06:09:49;;;;;;;11.52;3.60;;;29.10;82.80;;;;;;5010329;28;20048;-68
2021/06/27 06:12:54;;;;;;;6.05;3.28;;;30.10;82.40;;;;;;5023805;28;20053;-69
2021/06/27 06:15:58;;;;;;;6.88;3.13;;;29.10;82.90;;;;;;5025560;28;20041;-68
2021/06/27 06:19:02;;;;;;;6.13;2.85;;;28.90;84.20;;;;;;5031107;28;20376;-68
2021/06/27 06:22:07;;;;;;;8.23;2.63;;;28.40;84.30;;;;;;5022920;28;20052;-68
2021/06/27 06:25:11;;;;;;;6.53;3.33;;;27.60;86.30;;;;;;5026051;28;20048;-68
2021/06/27 06:28:17;;;;;;;9.73;3.08;;;26.30;88.90;;;;;;5026212;28;20050;-68
2021/06/27 06:31:21;;;;;;;12.23;4.03;;;26.20;90.20;;;;;;5018919;28;20732;-68
2021/06/27 06:34:29;;;;;;;7.40;3.20;;;27.60;87.60;;;;;;5023841;28;20858;-67
2021/06/27 06:37:34;;;;;;;8.63;3.50;;;28.30;87.10;;;;;;5027446;28;20052;-68
2021/06/27 06:40:40;;;;;;;7.72;2.83;;;29.00;84.50;;;;;;5028143;28;20036;-68
2021/06/27 06:43:44;;;;;;;7.18;3.58;;;27.10;87.10;;;;;;5026193;28;20663;-68
2021/06/27 06:46:49;;;;;;;6.18;3.53;;;26.50;88.90;;;;;;5031378;28;20036;-69
2021/06/27 06:49:53;;;;;;;4.15;3.00;;;27.70;88.20;;;;;;5031071;28;20513;-69
2021/06/27 06:52:56;;;;;;;11.18;3.10;;;29.60;84.20;;;;;;5006961;28;20064;-68
2021/06/27 06:56:01;;;;;;;4.75;2.63;;;30.50;81.60;;;;;;5011603;28;20149;-68
2021/06/27 06:59:06;;;;;;;8.73;2.97;;;30.10;81.30;;;;;;5011341;28;20139;-68
2021/06/27 07:02:11;;;;;;;8.15;2.40;;;29.50;82.00;;;;;;5008902;28;20049;-68
2021/06/27 07:05:15;;;;;;;8.13;2.40;;;31.00;80.00;;;;;;5011190;28;20049;-69
2021/06/27 07:08:19;;;;;;;6.32;2.28;;;31.10;78.80;;;;;;5011170;28;20045;-69
2021/06/27 07:11:23;;;;;;;5.72;2.50;;;31.90;77.80;;;;;;5010826;28;20049;-68
2021/06/27 07:14:27;;;;;;;5.75;2.40;;;33.00;76.80;;;;;;5010080;28;20040;-68
2021/06/27 07:17:31;;;;;;;6.30;2.63;;;33.80;75.30;;;;;;5010193;28;20041;-68
2021/06/27 07:20:36;;;;;;;8.23;2.75;;;33.00;74.50;;;;;;5014701;28;20061;-69
2021/06/27 07:23:40;;;;;;;9.23;2.70;;;31.30;76.00;;;;;;4994960;28;20053;-69
2021/06/27 07:26:44;;;;;;;9.25;2.70;;;31.50;77.90;;;;;;5014934;28;20048;-68
2021/06/27 07:29:49;;;;;;;4.95;2.80;;;32.00;77.00;;;;;;5015162;28;20045;-68
2021/06/27 07:32:54;;;;;;;6.72;2.75;;;30.50;79.20;;;;;;5014691;28;20121;-68
2021/06/27 07:35:58;;;;;;;7.28;2.60;;;29.80;80.20;;;;;;5017061;28;20049;-68
2021/06/27 07:39:03;;;;;;;8.65;3.13;;;29.70;81.80;;;;;;5027547;28;20049;-68
2021/06/27 07:42:07;;;;;;;6.80;2.90;;;30.50;79.00;;;;;;5012873;28;20449;-68
2021/06/27 07:45:12;;;;;;;5.43;2.70;;;31.30;78.60;;;;;;5011985;28;20056;-68
2021/06/27 07:48:17;;;;;;;8.50;2.80;;;33.10;77.00;;;;;;5014616;28;20061;-68
2021/06/27 07:51:21;;;;;;;7.80;3.00;;;33.10;75.90;;;;;;5013920;28;20056;-68
2021/06/27 07:54:25;;;;;;;5.25;3.00;;;33.10;74.40;;;;;;5014192;28;20045;-68
2021/06/27 07:57:30;;;;;;;8.20;2.65;;;32.30;76.70;;;;;;5013950;28;20041;-69
2021/06/27 08:00:34;;;;;;;10.70;2.47;;;33.60;76.10;;;;;;5013526;28;20045;-68
2021/06/27 08:03:38;;;;;;;6.72;2.28;;;35.90;72.10;;;;;;5013487;28;20061;-66
2021/06/27 08:06:42;;;;;;;7.18;2.83;;;37.40;70.60;;;;;;5013148;28;20427;-66
2021/06/27 08:09:47;;;;;;;8.75;3.47;;;38.50;67.90;;;;;;5013034;28;20051;-66
2021/06/27 08:12:52;;;;;;;9.30;3.92;;;39.30;66.60;;;;;;5008282;28;20045;-67
2021/06/27 08:15:58;;;;;;;7.65;4.22;;;40.00;64.50;;;;;;4994234;28;20049;-67
2021/06/27 08:19:05;;;;;;;13.05;3.63;;;41.00;62.40;;;;;;4994256;28;20057;-67
2021/06/27 08:22:10;;;;;;;7.57;3.65;;;41.80;60.70;;;;;;4998438;28;20045;-67
2021/06/27 08:25:16;;;;;;;7.35;2.72;;;42.70;59.90;;;;;;5012994;28;20048;-66
2021/06/27 08:28:20;;;;;;;8.57;2.00;;;39.60;61.20;;;;;;4994297;28;20045;-67
2021/06/27 08:31:26;;;;;;;7.40;1.98;;;40.60;62.20;;;;;;4992701;28;20050;-66
2021/06/27 08:34:31;;;;;;;7.90;2.08;;;40.50;61.30;;;;;;5008177;28;20384;-69
2021/06/27 08:37:35;;;;;;;7.20;2.00;;;36.20;65.10;;;;;;5014499;28;20066;-66
2021/06/27 08:40:39;;;;;;;7.65;1.80;;;38.30;64.10;;;;;;5012987;28;20037;-67
2021/06/27 08:43:45;;;;;;;5.38;1.83;;;40.20;61.10;;;;;;5023699;28;20109;-67
2021/06/27 08:46:50;;;;;;;10.43;1.77;;;40.20;58.90;;;;;;5013657;28;20057;-66
2021/06/27 08:49:55;;;;;;;12.40;1.70;;;41.20;59.30;;;;;;5013820;28;20053;-69
2021/06/27 08:53:00;;;;;;;6.00;1.50;;;42.60;58.20;;;;;;5012361;28;20068;-68
2021/06/27 08:56:05;;;;;;;4.30;1.20;;;39.80;56.30;;;;;;5013762;28;20057;-68
2021/06/27 08:59:09;;;;;;;3.15;1.17;;;39.70;58.30;;;;;;5013352;28;20392;-67
2021/06/27 09:02:13;;;;;;;4.25;1.00;;;41.20;54.40;;;;;;5011013;28;20159;-68
2021/06/27 09:05:19;;;;;;;5.25;1.20;;;39.90;53.90;;;;;;4993092;28;20057;-68
2021/06/27 09:08:25;;;;;;;3.72;0.90;;;39.40;54.90;;;;;;5004908;28;20415;-68
2021/06/27 09:11:29;;;;;;;5.32;0.90;;;41.50;52.90;;;;;;5012551;28;20049;-66
2021/06/27 09:14:35;;;;;;;3.05;1.00;;;41.30;55.90;;;;;;5008839;28;20049;-66
2021/06/27 09:17:43;;;;;;;8.75;1.80;;;42.30;55.80;;;;;;5012660;28;20044;-67
2021/06/27 09:20:51;;;;;;;6.05;1.33;;;40.10;56.90;;;;;;5009346;28;20036;-67
2021/06/27 09:23:56;;;;;;;9.52;1.60;;;39.70;60.00;;;;;;5008556;28;20061;-68
2021/06/27 09:27:18;;;;;;;6.53;1.45;;;40.40;57.60;;;;;;5009910;28;20057;-65
2021/06/27 09:30:23;;;;;;;4.53;1.00;;;39.80;59.20;;;;;;5009380;28;20052;-66
2021/06/27 09:33:30;;;;;;;5.47;1.30;;;40.80;57.00;;;;;;5010269;28;20068;-67
2021/06/27 09:36:48;;;;;;;4.82;1.17;;;40.20;56.90;;;;;;5010213;28;20045;-67
2021/06/27 09:40:03;;;;;;;4.07;1.15;;;40.80;56.40;;;;;;5012286;28;20087;-67
2021/06/27 09:43:08;;;;;;;13.77;1.48;;;43.00;56.40;;;;;;5011120;28;20049;-66
2021/06/27 09:46:13;;;;;;;2.92;1.10;;;43.80;54.50;;;;;;5011958;28;20060;-66
2021/06/27 09:49:28;;;;;;;5.13;1.15;;;45.70;53.90;;;;;;5012079;28;20057;-66
2021/06/27 09:52:38;;;;;;;3.85;0.80;;;46.70;53.80;;;;;;5012011;28;20052;-67
2021/06/27 09:55:59;;;;;;;3.33;1.00;;;45.80;51.80;;;;;;4998627;28;20151;-67
2021/06/27 09:59:06;;;;;;;2.83;0.77;;;45.90;53.00;;;;;;5031147;28;20048;-67
2021/06/27 10:02:11;;;;;;;5.07;1.25;;;47.50;50.70;;;;;;5021633;28;20045;-66
2021/06/27 10:05:25;;;;;;;7.95;1.48;;;48.60;51.10;;;;;;5011582;28;20045;-67
2021/06/27 10:08:32;;;;;;;5.07;1.10;;;44.50;51.00;;;;;;5012069;28;20373;-66
2021/06/27 10:11:38;;;;;;;4.40;0.80;;;42.70;53.50;;;;;;5028551;28;20052;-67
2021/06/27 10:14:48;;;;;;;4.05;1.23;;;43.10;53.20;;;;;;5031422;28;20048;-67
2021/06/27 10:17:52;;;;;;;10.93;1.23;;;41.80;52.60;;;;;;5031764;28;20041;-66
2021/06/27 10:20:57;;;;;;;4.07;0.93;;;43.40;53.00;;;;;;5031396;28;20048;-67
2021/06/27 10:24:01;;;;;;;8.23;1.90;;;45.70;52.40;;;;;;5031865;28;20056;-67
2021/06/27 10:27:07;;;;;;;3.50;0.70;;;44.40;52.10;;;;;;5027467;28;20049;-67
2021/06/27 10:30:11;;;;;;;4.53;0.70;;;42.50;51.40;;;;;;5010240;28;20073;-66
2021/06/27 10:33:15;;;;;;;3.55;0.80;;;39.00;54.40;;;;;;5011310;28;20044;-67
2021/06/27 10:36:49;;;;;;;3.35;1.00;;;39.80;52.10;;;;;;4994336;28;20045;-68
2021/06/27 10:39:57;;;;;;;2.63;0.90;;;38.20;54.30;;;;;;5009780;28;20495;-68
2021/06/27 10:43:02;;;;;;;1.48;0.63;;;39.40;52.80;;;;;;5010421;28;20638;-68
2021/06/27 10:46:06;;;;;;;0.98;0.77;;;41.40;52.30;;;;;;5010461;28;20535;-68
2021/06/27 10:49:33;;;;;;;2.40;0.60;;;43.00;51.30;;;;;;5011296;28;20432;-69
2021/06/27 10:52:55;;;;;;;6.50;1.02;;;43.00;49.80;;;;;;5009911;28;20400;-70
2021/06/27 10:55:59;;;;;;;1.88;1.00;;;42.50;50.20;;;;;;5025475;28;20519;-69
2021/06/27 10:59:03;;;;;;;3.33;0.80;;;40.50;51.70;;;;;;5015477;28;20053;-69
2021/06/27 11:02:17;;;;;;;5.05;1.00;;;41.90;51.00;;;;;;5025938;28;20048;-70
2021/06/27 11:05:28;;;;;;;2.05;0.80;;;40.90;48.50;;;;;;5034657;28;20503;-68
2021/06/27 11:08:41;;;;;;;2.85;0.70;;;38.10;49.40;;;;;;5034983;28;20514;-68
2021/06/27 11:11:54;;;;;;;3.90;0.60;;;39.10;50.10;;;;;;5034381;28;20048;-68
2021/06/27 11:15:15;;;;;;;6.50;0.90;;;37.10;49.10;;;;;;5034789;28;20060;-69
2021/06/27 11:18:31;;;;;;;;;;;35.80;51.50;;;;;;4995011;28;20061;-69
2021/06/27 11:21:37;;;;;;;2.08;0.80;;;37.80;52.40;;;;;;4994623;28;19964;-70
2021/06/27 11:24:42;;;;;;;5.65;0.98;;;38.90;50.90;;;;;;4994975;28;20385;-70
2021/06/27 11:27:47;;;;;;;3.58;0.70;;;39.80;50.50;;;;;;5011160;28;20049;-69
2021/06/27 11:30:54;;;;;;;4.68;0.70;;;41.70;49.90;;;;;;5013524;28;20041;-69
2021/06/27 11:34:20;;;;;;;1.63;0.82;;;39.70;48.20;;;;;;5008743;28;20064;-68
2021/06/27 11:37:25;;;;;;;3.88;0.77;;;37.60;51.40;;;;;;5007233;28;20045;-68
2021/06/27 11:40:50;;;;;;;3.42;0.80;;;39.20;51.10;;;;;;5009029;28;20500;-68
2021/06/27 11:43:54;;;;;;;1.48;0.70;;;38.80;52.60;;;;;;5014789;28;20045;-70
2021/06/27 11:47:20;;;;;;;8.85;0.93;;;39.70;52.00;;;;;;5009843;28;20388;-68
2021/06/27 11:50:24;;;;;;;3.08;1.33;;;40.70;52.10;;;;;;5010262;28;20049;-68
2021/06/27 11:53:29;;;;;;;3.80;0.93;;;40.90;51.20;;;;;;5010234;28;20044;-67
2021/06/27 11:56:55;;;;;;;2.25;0.90;;;41.30;51.00;;;;;;5003930;28;20041;-68
2021/06/27 12:00:00;;;;;;;2.65;0.70;;;40.30;50.70;;;;;;5012842;28;20064;-68
2021/06/27 12:03:16;;;;;;;4.25;0.95;;;37.20;50.90;;;;;;5011877;28;20503;-69
2021/06/27 12:06:21;;;;;;;3.40;0.85;;;35.60;54.00;;;;;;5010034;28;20037;-71
2021/06/27 12:09:35;;;;;;;2.67;0.95;;;36.00;54.40;;;;;;5012339;28;20098;-70
2021/06/27 12:13:02;;;;;;;4.22;1.08;;;35.30;55.10;;;;;;5014982;28;20048;-72
2021/06/27 12:16:06;;;;;;;2.60;0.98;;;36.30;53.40;;;;;;5015696;28;20507;-70
2021/06/27 12:19:11;;;;;;;4.75;1.30;;;35.90;53.20;;;;;;5013297;28;20049;-71
2021/06/27 12:22:16;;;;;;;1.98;0.93;;;36.20;53.40;;;;;;5012104;28;20033;-71
2021/06/27 12:25:29;;;;;;;4.75;1.00;;;36.30;53.00;;;;;;5011446;28;20044;-71
2021/06/27 12:28:40;;;;;;;1.80;0.90;;;37.30;51.50;;;;;;4988071;28;20041;-72
2021/06/27 12:31:44;;;;;;;3.05;0.82;;;37.80;51.80;;;;;;5010726;28;20048;-68
2021/06/27 12:34:48;;;;;;;3.38;0.75;;;38.60;52.40;;;;;;5008899;28;20048;-71
2021/06/27 12:37:53;;;;;;;6.95;0.93;;;36.30;50.70;;;;;;5013038;28;20045;-72
2021/06/27 12:41:00;;;;;;;3.67;1.00;;;37.20;51.90;;;;;;5012407;28;20385;-71
2021/06/27 12:44:10;;;;;;;5.38;1.00;;;38.20;51.90;;;;;;5013856;28;20053;-70
2021/06/27 12:47:27;;;;;;;4.82;0.90;;;36.50;51.60;;;;;;5013592;28;20053;-72
2021/06/27 12:50:40;;;;;;;1.73;0.80;;;37.20;51.80;;;;;;5012865;28;20763;-71
2021/06/27 12:53:57;;;;;;;4.07;0.98;;;37.60;52.40;;;;;;5012613;28;20044;-71
2021/06/27 12:57:12;;;;;;;2.67;1.05;;;36.50;53.10;;;;;;5008009;28;20049;-71
2021/06/27 13:00:17;;;;;;;6.43;0.90;;;36.10;52.50;;;;;;5011057;28;20045;-71
2021/06/27 13:03:21;;;;;;;1.83;0.90;;;35.20;51.60;;;;;;5011874;28;20040;-71
2021/06/27 13:06:25;;;;;;;1.58;0.70;;;35.80;50.90;;;;;;5012699;28;20064;-71
2021/06/27 13:09:33;;;;;;;1.70;0.70;;;36.20;52.30;;;;;;5015250;28;20037;-71
2021/06/27 13:12:47;;;;;;;3.30;0.88;;;37.20;51.80;;;;;;5020791;28;20053;-69
2021/06/27 13:15:51;;;;;;;2.63;1.10;;;36.30;52.40;;;;;;5013596;28;20053;-71
2021/06/27 13:19:05;;;;;;;3.17;0.95;;;36.60;50.80;;;;;;5012281;28;20053;-69
2021/06/27 13:22:12;;;;;;;1.98;0.80;;;35.40;53.00;;;;;;5020500;28;20057;-70
2021/06/27 13:25:28;;;;;;;1.42;0.70;;;36.20;50.80;;;;;;5032170;28;20043;-72
2021/06/27 13:28:39;;;;;;;1.58;1.00;;;37.30;50.50;;;;;;5032207;28;20044;-70
2021/06/27 13:31:43;;;;;;;4.10;1.13;;;37.30;51.60;;;;;;5031601;28;20112;-69
2021/06/27 13:34:48;;;;;;;2.28;0.70;;;36.00;52.60;;;;;;5031803;28;20048;-71
2021/06/27 13:37:53;;;;;;;3.72;1.00;;;36.50;51.40;;;;;;5032428;28;20048;-71
2021/06/27 13:40:58;;;;;;;3.05;0.90;;;37.10;51.60;;;;;;5031898;28;20045;-69
2021/06/27 13:44:04;;;;;;;2.67;0.90;;;37.00;52.60;;;;;;5032244;28;20048;-70
2021/06/27 13:47:09;;;;;;;3.17;0.90;;;36.40;53.00;;;;;;5026709;28;20428;-70
2021/06/27 13:50:14;;;;;;;1.98;0.88;;;36.10;53.80;;;;;;5030172;28;20048;-68
2021/06/27 13:53:19;;;;;;;3.70;1.08;;;34.60;54.40;;;;;;5029899;28;20043;-70
2021/06/27 13:56:23;;;;;;;1.83;0.90;;;34.30;54.60;;;;;;5031063;28;20040;-70
2021/06/27 13:59:27;;;;;;;3.30;0.90;;;35.40;54.90;;;;;;5030765;28;20048;-70
2021/06/27 14:02:31;;;;;;;1.92;1.08;;;36.00;55.00;;;;;;5030969;28;20494;-70
2021/06/27 14:05:36;;;;;;;2.25;1.00;;;36.40;54.20;;;;;;5031027;28;20044;-71
2021/06/27 14:08:41;;;;;;;6.60;1.02;;;36.10;55.20;;;;;;5030321;28;20036;-69
2021/06/27 14:11:45;;;;;;;5.47;0.90;;;36.00;54.90;;;;;;5027465;28;20040;-70
2021/06/27 14:14:50;;;;;;;3.13;0.70;;;36.40;53.80;;;;;;5024640;28;20044;-70
2021/06/27 14:17:54;;;;;;;3.15;0.93;;;36.70;53.90;;;;;;5015612;28;20045;-69
2021/06/27 14:20:58;;;;;;;4.43;0.90;;;36.50;53.40;;;;;;5028792;28;20052;-71
2021/06/27 14:24:03;;;;;;;4.53;1.05;;;36.30;53.30;;;;;;5020276;28;20663;-70
2021/06/27 14:27:08;;;;;;;3.00;0.65;;;36.30;53.10;;;;;;5014257;28;20045;-71
2021/06/27 14:30:13;;;;;;;1.48;0.80;;;36.20;54.50;;;;;;5025576;28;20043;-70
2021/06/27 14:33:18;;;;;;;5.15;0.90;;;36.20;55.60;;;;;;5025769;28;20036;-71
2021/06/27 14:36:22;;;;;;;2.75;1.00;;;36.40;54.30;;;;;;5011080;28;20049;-68
2021/06/27 14:39:27;;;;;;;4.63;0.90;;;35.40;53.10;;;;;;5008186;28;20045;-70
2021/06/27 14:42:32;;;;;;;4.85;1.00;;;35.00;54.50;;;;;;5010691;28;20499;-68
2021/06/27 14:45:37;;;;;;;3.63;0.95;;;34.30;55.60;;;;;;4997551;28;20390;-71
2021/06/27 14:48:41;;;;;;;3.33;1.10;;;34.30;56.30;;;;;;5010227;28;20499;-71
2021/06/27 14:51:47;;;;;;;4.15;1.25;;;34.10;55.80;;;;;;5010089;28;20041;-70
2021/06/27 14:54:51;;;;;;;2.55;1.00;;;34.30;56.30;;;;;;5009620;28;20396;-71
2021/06/27 14:57:55;;;;;;;4.22;1.13;;;33.20;55.70;;;;;;5011604;28;20049;-70
2021/06/27 15:01:01;;;;;;;1.85;0.90;;;33.20;57.80;;;;;;5010701;28;20049;-70
2021/06/27 15:04:05;;;;;;;6.18;1.00;;;33.30;56.50;;;;;;5027562;28;20053;-70
2021/06/27 15:07:10;;;;;;;2.63;1.00;;;33.70;57.60;;;;;;5010594;28;20794;-71
2021/06/27 15:10:14;;;;;;;3.40;1.17;;;34.40;57.40;;;;;;5011541;28;20049;-71
2021/06/27 15:13:19;;;;;;;4.47;1.13;;;34.60;56.50;;;;;;5030500;28;20052;-71
2021/06/27 15:16:23;;;;;;;1.85;1.10;;;34.70;56.80;;;;;;5030288;28;20037;-68
2021/06/27 15:19:28;;;;;;;4.07;1.00;;;34.50;57.60;;;;;;5022427;28;20045;-70
2021/06/27 15:22:32;;;;;;;3.08;1.20;;;34.40;56.50;;;;;;5019404;28;20722;-71
2021/06/27 15:25:37;;;;;;;6.53;1.52;;;34.50;57.60;;;;;;5025490;28;20394;-69
2021/06/27 15:28:42;;;;;;;4.22;1.20;;;34.60;57.90;;;;;;5010931;28;20680;-71
2021/06/27 15:31:47;;;;;;;2.30;1.25;;;34.60;58.30;;;;;;5022403;28;20056;-70
2021/06/27 15:34:52;;;;;;;2.65;1.20;;;34.40;57.00;;;;;;5011916;28;20053;-70
2021/06/27 15:37:57;;;;;;;4.95;1.50;;;34.30;58.60;;;;;;5030624;28;20534;-69
2021/06/27 15:41:02;;;;;;;3.60;1.30;;;33.70;57.60;;;;;;5032237;28;20044;-71
2021/06/27 15:44:08;;;;;;;2.35;1.30;;;33.70;58.00;;;;;;5013733;28;20141;-71
2021/06/27 15:47:13;;;;;;;7.35;1.30;;;33.80;60.00;;;;;;5014702;28;20056;-71
2021/06/27 15:50:17;;;;;;;5.88;1.90;;;34.00;60.50;;;;;;5013192;28;20052;-71
2021/06/27 15:53:22;;;;;;;2.85;1.60;;;34.20;60.40;;;;;;5013402;28;20409;-71
2021/06/27 15:56:27;;;;;;;5.90;1.33;;;34.30;60.50;;;;;;5013060;28;20385;-69
2021/06/27 15:59:33;;;;;;;2.60;1.48;;;34.30;60.50;;;;;;5012812;28;20053;-70
2021/06/27 16:02:38;;;;;;;10.82;1.70;;;34.20;60.10;;;;;;5019277;28;20044;-71
2021/06/27 16:05:43;;;;;;;18.67;2.25;;;34.00;60.80;;;;;;5012803;28;20060;-69
2021/06/27 16:08:48;;;;;;;9.73;1.70;;;34.00;61.20;;;;;;4994303;28;20049;-68